Crestwood, Kentucky
Current Conditions -  °F | °C
As of 4:53 AM on Sunday 23 Nov 2014 (Local Time) from KLOU Reporting Station
Broken Clouds Broken Clouds  
Wind Chill: 55°   Ceiling: 8500
Heat Index: 55°   Visibility: 10mi
Dew Point: 38°   Wind: 7mph
Humidity: 53%   Direction: 190°S
Pressure: 30"   Gusts: NA
Location:  38.32°N, 85.47°W
Report Text: KLOU 230953Z AUTO 19006KT 10SM SCT037 BKN085 13/03 A3000 RMK AO2 SLP156 T01280033
Loading
Personal Weather Stations






























Interactive Weather Map New forecast layout! Learn more

10-Day Weather Forecast

Advertisements
Track Severe Weather on mobile